createdAt,value
2023-12-11T00:00:42.669Z,2.40
2023-12-11T00:03:11.673Z,2.73
2023-12-11T00:05:40.163Z,2.35
2023-12-11T00:08:08.863Z,3.33
2023-12-11T00:10:36.613Z,2.65
2023-12-11T00:13:05.399Z,2.25
2023-12-11T00:15:33.217Z,3.43
2023-12-11T00:18:05.080Z,3.67
2023-12-11T00:20:33.496Z,2.92
2023-12-11T00:23:01.293Z,2.45
2023-12-11T00:25:29.266Z,3.17
2023-12-11T00:27:57.064Z,2.63
2023-12-11T00:30:24.865Z,2.65
2023-12-11T00:32:52.598Z,2.75
2023-12-11T00:35:24.299Z,1.90
2023-12-11T00:37:52.122Z,2.22
2023-12-11T00:40:19.930Z,1.43
2023-12-11T00:42:47.607Z,1.70
2023-12-11T00:45:15.365Z,2.28
2023-12-11T00:47:43.133Z,2.30
2023-12-11T00:50:11.315Z,2.00
2023-12-11T00:52:40.490Z,2.03
2023-12-11T00:55:09.045Z,1.67
2023-12-11T00:57:36.862Z,2.95
2023-12-11T01:00:04.998Z,2.03
2023-12-11T01:02:32.854Z,1.90
2023-12-11T01:05:00.708Z,1.73
2023-12-11T01:07:28.698Z,2.95
2023-12-11T01:10:00.082Z,1.90
2023-12-11T01:12:28.516Z,1.88
2023-12-11T01:14:56.216Z,1.75
2023-12-11T01:17:37.954Z,2.80
2023-12-11T01:20:09.272Z,2.17
2023-12-11T01:22:37.166Z,2.38
2023-12-11T01:25:06.574Z,2.30
2023-12-11T01:27:34.626Z,1.75
2023-12-11T01:30:02.481Z,4.03
2023-12-11T01:32:30.131Z,2.83
2023-12-11T01:34:58.199Z,3.15
2023-12-11T01:37:25.953Z,2.38
2023-12-11T01:39:53.657Z,2.13
2023-12-11T01:42:22.821Z,1.70
2023-12-11T01:44:50.544Z,1.70
2023-12-11T01:47:22.282Z,1.75
2023-12-11T01:49:52.089Z,2.00
2023-12-11T01:52:20.531Z,1.98
2023-12-11T01:54:48.294Z,2.73
2023-12-11T01:57:16.153Z,2.28
2023-12-11T01:59:49.056Z,2.03
2023-12-11T02:02:17.777Z,2.42
2023-12-11T02:04:46.161Z,2.08
2023-12-11T02:07:14.036Z,2.87
2023-12-11T02:09:42.065Z,2.47
2023-12-11T02:12:10.092Z,2.50
2023-12-11T02:14:37.773Z,3.30
2023-12-11T02:17:10.864Z,1.77
2023-12-11T02:19:38.807Z,3.60
2023-12-11T02:22:06.936Z,1.95
2023-12-11T02:24:35.344Z,3.28
2023-12-11T02:27:04.889Z,1.88
2023-12-11T02:29:32.617Z,1.70
2023-12-11T02:32:01.011Z,2.20
2023-12-11T02:34:28.715Z,2.30
2023-12-11T02:36:56.628Z,2.22
2023-12-11T02:39:24.387Z,2.00
2023-12-11T02:41:51.048Z,2.97
2023-12-11T02:44:20.177Z,2.53
2023-12-11T02:46:47.932Z,1.88
2023-12-11T02:49:15.746Z,2.80
2023-12-11T02:51:43.549Z,2.47
2023-12-11T02:54:15.324Z,2.70
2023-12-11T02:56:42.942Z,2.23
2023-12-11T02:59:11.181Z,2.35
2023-12-11T03:01:41.171Z,1.90
2023-12-11T03:04:09.431Z,2.65
2023-12-11T03:06:42.269Z,1.77
2023-12-11T03:09:10.189Z,2.43
2023-12-11T03:11:37.817Z,2.40
2023-12-11T03:14:05.814Z,2.95
2023-12-11T03:16:33.452Z,2.03
2023-12-11T03:19:02.631Z,1.52
2023-12-11T03:21:30.676Z,2.23
2023-12-11T03:23:58.933Z,1.98
2023-12-11T03:26:27.812Z,2.30
2023-12-11T03:28:55.619Z,2.13
2023-12-11T03:31:24.170Z,1.67
2023-12-11T03:33:51.841Z,2.63
2023-12-11T03:36:21.155Z,2.08
2023-12-11T03:38:48.844Z,2.83
2023-12-11T03:41:16.457Z,2.85
2023-12-11T03:43:49.586Z,2.20
2023-12-11T03:46:17.372Z,1.70
2023-12-11T03:48:45.103Z,1.92
2023-12-11T03:51:12.955Z,1.45
2023-12-11T03:53:42.121Z,1.40
2023-12-11T03:56:10.264Z,1.80
2023-12-11T03:58:38.070Z,1.77
2023-12-11T04:01:06.028Z,1.85
2023-12-11T04:03:33.938Z,2.05
2023-12-11T04:06:01.754Z,2.25
2023-12-11T04:08:29.469Z,2.20
2023-12-11T04:10:58.474Z,1.67
2023-12-11T04:13:26.133Z,1.20
2023-12-11T04:15:54.292Z,2.28
2023-12-11T04:18:22.112Z,2.08
2023-12-11T04:20:49.835Z,1.10
2023-12-11T04:23:17.517Z,1.73
2023-12-11T04:25:45.244Z,1.40
2023-12-11T04:28:14.437Z,1.58
2023-12-11T04:30:42.225Z,1.30
2023-12-11T04:33:10.271Z,1.92
2023-12-11T04:35:38.083Z,1.97
2023-12-11T04:38:05.823Z,1.77
2023-12-11T04:40:34.356Z,1.17
2023-12-11T04:43:02.054Z,1.00
2023-12-11T04:45:36.137Z,1.65
2023-12-11T04:48:04.180Z,1.63
2023-12-11T04:50:32.209Z,1.38
2023-12-11T04:52:59.903Z,1.38
2023-12-11T04:55:28.527Z,2.28
2023-12-11T04:57:56.421Z,1.73
2023-12-11T05:00:24.214Z,1.00
2023-12-11T05:02:53.326Z,0.88
2023-12-11T05:05:21.158Z,1.23
2023-12-11T05:07:48.862Z,1.75
2023-12-11T05:10:17.919Z,1.45
2023-12-11T05:12:47.736Z,2.10
2023-12-11T05:15:15.499Z,1.23
2023-12-11T05:17:43.285Z,1.00
2023-12-11T05:20:19.491Z,1.70
2023-12-11T05:22:47.400Z,1.17
2023-12-11T05:25:15.337Z,1.60
2023-12-11T05:27:43.136Z,1.35
2023-12-11T05:30:11.453Z,1.77
2023-12-11T05:32:40.172Z,1.55
2023-12-11T05:35:10.155Z,1.50
2023-12-11T05:37:40.979Z,2.33
2023-12-11T05:40:21.833Z,1.25
2023-12-11T05:42:51.643Z,1.30
2023-12-11T05:45:19.502Z,1.05
2023-12-11T05:47:47.477Z,1.10
2023-12-11T05:50:15.297Z,0.97
2023-12-11T05:52:45.350Z,1.17
2023-12-11T05:55:13.692Z,1.45
2023-12-11T05:57:41.518Z,1.75
2023-12-11T06:00:12.978Z,1.05
2023-12-11T06:02:41.547Z,2.17
2023-12-11T06:05:10.807Z,1.00
2023-12-11T06:07:38.622Z,2.00
2023-12-11T06:10:09.088Z,1.15
2023-12-11T06:12:37.021Z,1.35
2023-12-11T06:15:05.037Z,1.40
2023-12-11T06:17:32.887Z,1.27
2023-12-11T06:20:01.561Z,2.08
2023-12-11T06:22:29.345Z,1.27
2023-12-11T06:24:57.334Z,2.10
2023-12-11T06:27:28.979Z,1.47
2023-12-11T06:29:56.936Z,1.10
2023-12-11T06:32:24.647Z,1.88
2023-12-11T06:34:52.501Z,1.23
2023-12-11T06:37:20.316Z,1.55
2023-12-11T06:39:49.673Z,1.30
2023-12-11T06:42:17.541Z,1.42
2023-12-11T06:44:46.783Z,1.00
2023-12-11T06:47:14.792Z,1.63
2023-12-11T06:49:43.704Z,1.02
2023-12-11T06:52:11.762Z,1.47
2023-12-11T06:54:40.456Z,1.25
2023-12-11T06:57:08.432Z,1.63
2023-12-11T06:59:36.416Z,1.35
2023-12-11T07:02:08.145Z,1.88
2023-12-11T07:04:36.650Z,1.33
2023-12-11T07:07:04.707Z,1.60
2023-12-11T07:09:32.942Z,1.35
2023-12-11T07:12:00.698Z,1.98
2023-12-11T07:14:29.328Z,1.60
2023-12-11T07:16:57.016Z,2.23
2023-12-11T07:19:26.308Z,1.48
2023-12-11T07:21:54.708Z,1.40
2023-12-11T07:24:22.412Z,1.80
2023-12-11T07:26:50.105Z,1.10
2023-12-11T07:29:17.800Z,1.40
2023-12-11T07:31:45.626Z,1.40
2023-12-11T07:34:13.503Z,1.58
2023-12-11T07:36:42.782Z,1.50
2023-12-11T07:39:11.227Z,1.88
2023-12-11T07:41:39.031Z,1.10
2023-12-11T07:44:06.731Z,1.30
2023-12-11T07:46:34.423Z,1.30
2023-12-11T07:49:02.235Z,1.42
2023-12-11T07:51:29.940Z,1.45
2023-12-11T07:54:00.216Z,1.97
2023-12-11T07:56:28.396Z,1.60
2023-12-11T07:58:56.141Z,1.92
2023-12-11T08:01:24.192Z,2.05
2023-12-11T08:03:52.111Z,1.27
2023-12-11T08:06:19.897Z,1.90
2023-12-11T08:08:49.010Z,0.95
2023-12-11T08:11:19.528Z,1.67
2023-12-11T08:13:48.765Z,1.02
2023-12-11T08:16:17.036Z,1.58
2023-12-11T08:18:46.154Z,1.37
2023-12-11T08:21:14.185Z,1.85
2023-12-11T08:23:43.574Z,1.75
2023-12-11T08:26:11.627Z,1.30
2023-12-11T08:28:40.821Z,1.08
2023-12-11T08:31:14.246Z,1.07
2023-12-11T08:33:42.507Z,0.93
2023-12-11T08:36:11.404Z,1.13
2023-12-11T08:38:40.790Z,0.82
2023-12-11T08:41:08.822Z,1.97
2023-12-11T08:43:36.599Z,1.25
2023-12-11T08:46:06.096Z,1.00
2023-12-11T08:48:34.082Z,1.40
2023-12-11T08:51:02.005Z,0.98
2023-12-11T08:53:29.919Z,0.83
2023-12-11T08:56:02.509Z,1.17
2023-12-11T08:58:32.369Z,1.25
2023-12-11T09:01:00.133Z,1.30
2023-12-11T09:03:29.281Z,0.90
2023-12-11T09:05:57.757Z,1.00
2023-12-11T09:08:26.784Z,1.27
2023-12-11T09:10:54.975Z,1.30
2023-12-11T09:13:25.182Z,1.13
2023-12-11T09:15:55.233Z,1.35
2023-12-11T09:18:22.956Z,1.10
2023-12-11T09:20:52.354Z,1.35
2023-12-11T09:23:20.104Z,1.25
2023-12-11T09:25:47.751Z,1.17
2023-12-11T09:28:16.121Z,1.20
2023-12-11T09:30:43.893Z,1.30
2023-12-11T09:33:13.978Z,1.75
2023-12-11T09:35:43.395Z,1.25
2023-12-11T09:38:12.991Z,1.10
2023-12-11T09:40:40.887Z,1.10
2023-12-11T09:43:10.061Z,1.03
2023-12-11T09:45:38.147Z,1.45
2023-12-11T09:48:14.577Z,1.23
2023-12-11T09:50:43.297Z,1.27
2023-12-11T09:53:12.828Z,1.48
2023-12-11T09:55:40.662Z,1.37
2023-12-11T09:58:13.098Z,1.35
2023-12-11T10:00:43.255Z,1.35
2023-12-11T10:03:11.533Z,1.35
2023-12-11T10:05:39.478Z,1.70
2023-12-11T10:08:07.353Z,1.03
2023-12-11T10:13:25.850Z,1.20
2023-12-11T10:15:53.840Z,1.17
2023-12-11T10:18:21.550Z,1.58
2023-12-11T10:20:54.632Z,1.93
2023-12-11T10:23:23.143Z,1.58
2023-12-11T10:25:52.973Z,1.65
2023-12-11T10:28:23.054Z,2.00
2023-12-11T10:30:54.002Z,1.00
2023-12-11T10:33:22.278Z,1.47
2023-12-11T10:35:50.448Z,1.58
2023-12-11T10:38:24.919Z,1.23
2023-12-11T10:40:57.685Z,1.00
2023-12-11T10:43:25.608Z,1.35
2023-12-11T10:45:53.587Z,1.50
2023-12-11T10:48:22.633Z,1.05
2023-12-11T10:50:50.030Z,1.00
2023-12-11T10:53:18.391Z,1.20
2023-12-11T10:55:46.513Z,1.98
2023-12-11T10:58:15.832Z,1.30
2023-12-11T11:00:44.022Z,1.20
2023-12-11T11:03:14.009Z,1.17
2023-12-11T11:05:42.534Z,1.20
2023-12-11T11:08:18.897Z,0.90
2023-12-11T11:10:49.318Z,1.10
2023-12-11T11:13:21.111Z,0.85
2023-12-11T11:15:52.822Z,1.53
2023-12-11T11:18:20.570Z,0.85
2023-12-11T11:21:03.098Z,1.13
2023-12-11T11:23:33.481Z,1.40
2023-12-11T11:26:01.414Z,0.90
2023-12-11T11:28:40.230Z,0.80
2023-12-11T11:31:18.829Z,1.17
2023-12-11T11:33:53.613Z,0.98
2023-12-11T11:36:30.140Z,0.70
2023-12-11T11:38:59.002Z,1.00
2023-12-11T11:41:28.159Z,0.77
2023-12-11T11:44:01.271Z,0.70
2023-12-11T11:46:29.266Z,1.48
2023-12-11T11:48:56.970Z,0.98
2023-12-11T11:51:24.907Z,1.02
2023-12-11T11:53:58.847Z,1.00
2023-12-11T11:56:26.778Z,0.77
2023-12-11T11:59:06.303Z,1.10
2023-12-11T12:01:36.045Z,1.38
2023-12-11T12:04:04.436Z,0.60
2023-12-11T12:06:32.788Z,0.90
2023-12-11T12:09:00.538Z,0.90
2023-12-11T12:11:30.263Z,1.20
2023-12-11T12:13:59.446Z,0.80
2023-12-11T12:16:32.408Z,0.80
2023-12-11T12:19:00.465Z,0.90
2023-12-11T12:21:29.874Z,0.82
2023-12-11T12:24:04.845Z,1.48
2023-12-11T12:26:33.049Z,1.15
2023-12-11T12:29:00.711Z,1.00
2023-12-11T12:31:28.636Z,0.90
2023-12-11T12:34:00.746Z,0.55
2023-12-11T12:36:32.137Z,0.90
2023-12-11T12:39:01.143Z,0.60
2023-12-11T12:41:29.557Z,0.70
2023-12-11T12:43:59.903Z,0.80
2023-12-11T12:46:28.232Z,1.15
2023-12-11T12:48:57.472Z,0.70
2023-12-11T12:51:25.693Z,0.93
2023-12-11T12:53:57.504Z,0.60
2023-12-11T12:56:26.903Z,1.45
2023-12-11T12:58:57.067Z,0.70
2023-12-11T13:01:24.982Z,0.87
2023-12-11T13:03:53.423Z,0.75
2023-12-11T13:06:27.420Z,0.77
2023-12-11T13:08:59.946Z,0.70
2023-12-11T13:11:42.464Z,0.70
2023-12-11T13:14:13.045Z,0.93
2023-12-11T13:16:42.200Z,0.73
2023-12-11T13:19:15.264Z,0.85
2023-12-11T13:21:44.519Z,0.63
2023-12-11T13:24:12.193Z,0.75
2023-12-11T13:26:40.299Z,0.70
2023-12-11T13:29:08.866Z,0.73
2023-12-11T13:31:42.426Z,0.90
2023-12-11T13:34:10.455Z,0.90
2023-12-11T13:36:38.137Z,0.90
2023-12-11T13:39:10.071Z,1.30
2023-12-11T13:41:39.733Z,0.60
2023-12-11T13:44:07.355Z,0.90
2023-12-11T13:46:35.343Z,0.70
2023-12-11T13:49:04.093Z,1.25
2023-12-11T13:51:31.865Z,1.10
2023-12-11T13:53:59.476Z,1.00
2023-12-11T13:56:28.576Z,1.08
2023-12-11T13:58:57.488Z,1.20
2023-12-11T14:01:25.609Z,0.80
2023-12-11T14:03:53.931Z,0.83
2023-12-11T14:06:23.163Z,1.58
2023-12-11T14:08:53.146Z,0.90
2023-12-11T14:11:21.129Z,1.58
2023-12-11T14:16:35.755Z,0.90
2023-12-11T14:19:04.394Z,1.38
2023-12-11T14:21:32.078Z,1.00
2023-12-11T14:23:59.990Z,1.65
2023-12-11T14:26:27.773Z,1.08
2023-12-11T14:28:56.772Z,1.23
2023-12-11T14:31:25.289Z,1.30
2023-12-11T14:33:53.585Z,1.55
2023-12-11T14:36:27.179Z,1.05
2023-12-11T14:38:56.646Z,1.02
2023-12-11T14:41:25.315Z,1.60
2023-12-11T14:43:53.132Z,1.25
2023-12-11T14:46:23.520Z,1.05
2023-12-11T14:48:53.757Z,1.48
2023-12-11T14:51:21.552Z,1.08
2023-12-11T14:53:49.474Z,1.38
2023-12-11T14:56:17.468Z,1.50
2023-12-11T14:58:45.191Z,1.48
2023-12-11T15:01:14.305Z,1.05
2023-12-11T15:03:44.060Z,1.40
2023-12-11T15:06:11.749Z,1.60
2023-12-11T15:08:40.850Z,1.57
2023-12-11T15:11:09.103Z,1.27
2023-12-11T15:13:36.884Z,1.10
2023-12-11T15:16:06.070Z,1.23
2023-12-11T15:18:33.780Z,0.95
2023-12-11T15:21:02.846Z,1.17
2023-12-11T15:23:30.573Z,1.33
2023-12-11T15:25:58.396Z,2.22
2023-12-11T15:28:26.208Z,1.92
2023-12-11T15:30:53.961Z,1.73
2023-12-11T15:33:40.084Z,2.00
2023-12-11T15:36:14.811Z,1.35
2023-12-11T15:38:43.468Z,1.65
2023-12-11T15:41:11.424Z,1.23
2023-12-11T15:43:40.106Z,2.13
2023-12-11T15:46:10.332Z,1.30
2023-12-11T15:48:38.652Z,1.85
2023-12-11T15:51:12.930Z,1.13
2023-12-11T15:53:41.219Z,1.98
2023-12-11T15:56:11.407Z,1.90
2023-12-11T15:58:39.741Z,1.83
2023-12-11T16:01:11.066Z,1.65
2023-12-11T16:03:39.661Z,1.75
2023-12-11T16:06:07.975Z,2.22
2023-12-11T16:08:40.638Z,2.40
2023-12-11T16:11:08.922Z,1.57
2023-12-11T16:13:36.582Z,1.73
2023-12-11T16:16:04.593Z,2.30
2023-12-11T16:18:32.355Z,1.45
2023-12-11T16:21:00.134Z,2.40
2023-12-11T16:23:28.295Z,1.90
2023-12-11T16:26:02.976Z,1.70
2023-12-11T16:28:38.595Z,2.03
2023-12-11T16:31:06.626Z,2.20
2023-12-11T16:33:34.533Z,2.58
2023-12-11T16:36:02.281Z,2.67
2023-12-11T16:38:30.255Z,2.15
2023-12-11T16:41:01.442Z,1.90
2023-12-11T16:43:29.153Z,2.33
2023-12-11T16:45:57.149Z,1.90
2023-12-11T16:48:24.932Z,2.03
2023-12-11T16:50:53.691Z,3.22
2023-12-11T16:53:21.430Z,2.20
2023-12-11T16:55:49.712Z,2.28
2023-12-11T16:58:18.818Z,1.95
2023-12-11T17:00:47.838Z,2.10
2023-12-11T17:03:16.030Z,2.15
2023-12-11T17:05:43.838Z,3.22
2023-12-11T17:08:11.543Z,3.28
2023-12-11T17:10:39.358Z,3.17
2023-12-11T17:13:08.302Z,3.27
2023-12-11T17:15:38.624Z,3.10
2023-12-11T17:18:06.752Z,2.92
2023-12-11T17:20:34.392Z,3.72
2023-12-11T17:23:03.422Z,3.67
2023-12-11T17:25:31.173Z,3.80
2023-12-11T17:27:58.843Z,3.30
2023-12-11T17:30:26.514Z,2.78
2023-12-11T17:32:55.663Z,2.83
2023-12-11T17:35:23.620Z,2.70
2023-12-11T17:37:51.522Z,1.90
2023-12-11T17:40:19.380Z,2.10
2023-12-11T17:42:47.047Z,1.77
2023-12-11T17:45:14.730Z,2.00
2023-12-11T17:47:42.441Z,2.50
2023-12-11T17:50:11.716Z,2.63
2023-12-11T17:52:40.555Z,2.17
2023-12-11T17:55:09.761Z,2.00
2023-12-11T17:57:38.226Z,4.05
2023-12-11T18:00:06.968Z,1.95
2023-12-11T18:02:34.687Z,2.47
2023-12-11T18:05:02.378Z,2.35
2023-12-11T18:07:32.046Z,2.50
2023-12-11T18:10:00.027Z,1.88
2023-12-11T18:12:27.703Z,2.03
2023-12-11T18:14:55.496Z,1.88
2023-12-11T18:17:23.188Z,2.00
2023-12-11T18:19:50.937Z,2.35
2023-12-11T18:22:18.809Z,2.13
2023-12-11T18:24:47.920Z,2.17
2023-12-11T18:27:15.664Z,2.30
2023-12-11T18:29:43.508Z,1.63
2023-12-11T18:32:13.112Z,1.63
2023-12-11T18:34:47.739Z,1.63
2023-12-11T18:37:26.154Z,2.15
2023-12-11T18:39:55.296Z,1.55
2023-12-11T18:42:22.910Z,1.73
2023-12-11T18:44:50.697Z,2.28
2023-12-11T18:47:18.745Z,3.05
2023-12-11T18:49:46.492Z,1.80
2023-12-11T18:52:17.069Z,2.03
2023-12-11T18:54:45.010Z,2.87
2023-12-11T18:57:15.446Z,2.00
2023-12-11T18:59:44.492Z,2.00
2023-12-11T19:02:13.234Z,2.33
2023-12-11T19:04:41.256Z,2.13
2023-12-11T19:07:13.405Z,2.80
2023-12-11T19:09:41.304Z,1.80
2023-12-11T19:12:11.303Z,1.60
2023-12-11T19:14:43.172Z,1.60
2023-12-11T19:17:11.961Z,2.25
2023-12-11T19:19:41.316Z,2.67
2023-12-11T19:22:10.049Z,2.05
2023-12-11T19:24:38.683Z,3.10
2023-12-11T19:27:06.646Z,2.42
2023-12-11T19:29:34.392Z,2.17
2023-12-11T19:32:03.734Z,2.63
2023-12-11T19:34:31.937Z,2.63
2023-12-11T19:37:01.107Z,2.03
2023-12-11T19:39:28.861Z,2.03
2023-12-11T19:41:56.472Z,2.88
2023-12-11T19:44:27.464Z,2.05
2023-12-11T19:46:55.622Z,3.15
2023-12-11T19:49:25.645Z,3.27
2023-12-11T19:51:53.947Z,1.95
2023-12-11T19:54:22.659Z,1.90
2023-12-11T19:56:50.572Z,1.53
2023-12-11T19:59:20.303Z,2.85
2023-12-11T20:01:48.003Z,1.88
2023-12-11T20:04:15.807Z,2.25
2023-12-11T20:06:45.125Z,2.95
2023-12-11T20:09:13.814Z,3.03
2023-12-11T20:11:42.318Z,2.78
2023-12-11T20:14:10.294Z,2.70
2023-12-11T20:16:38.265Z,3.22
2023-12-11T20:19:06.234Z,2.60
2023-12-11T20:21:34.983Z,2.67
2023-12-11T20:24:04.056Z,2.87
2023-12-11T20:26:31.721Z,2.80
2023-12-11T20:28:59.734Z,2.33
2023-12-11T20:31:28.628Z,2.92
2023-12-11T20:33:57.323Z,2.90
2023-12-11T20:36:28.142Z,3.50
2023-12-11T20:38:56.906Z,2.67
2023-12-11T20:41:27.792Z,2.97
2023-12-11T20:43:59.045Z,2.30
2023-12-11T20:46:27.522Z,3.45
2023-12-11T20:48:55.771Z,3.57
2023-12-11T20:51:25.557Z,3.72
2023-12-11T20:53:53.348Z,5.13
2023-12-11T20:56:21.732Z,3.60
2023-12-11T20:58:51.263Z,5.03
2023-12-11T21:01:28.757Z,2.97
2023-12-11T21:03:56.787Z,4.18
2023-12-11T21:06:24.655Z,3.70
2023-12-11T21:08:53.088Z,3.90
2023-12-11T21:11:20.856Z,3.13
2023-12-11T21:13:49.902Z,3.50
2023-12-11T21:16:21.436Z,4.22
2023-12-11T21:18:50.409Z,3.22
2023-12-11T21:21:21.515Z,3.53
2023-12-11T21:23:49.657Z,4.07
2023-12-11T21:26:17.488Z,3.13
2023-12-11T21:28:47.100Z,3.95
2023-12-11T21:31:21.151Z,4.13
2023-12-11T21:33:50.474Z,4.13
2023-12-11T21:36:18.410Z,3.30
2023-12-11T21:38:46.320Z,3.60
2023-12-11T21:41:15.314Z,3.85
2023-12-11T21:43:43.463Z,3.35
2023-12-11T21:46:19.539Z,3.40
2023-12-11T21:48:49.600Z,3.10
2023-12-11T21:51:18.431Z,3.97
2023-12-11T21:53:46.680Z,4.28
2023-12-11T21:56:14.641Z,3.30
2023-12-11T21:58:42.999Z,4.38
2023-12-11T22:01:11.036Z,3.28
2023-12-11T22:03:38.811Z,3.17
2023-12-11T22:06:08.426Z,3.63
2023-12-11T22:08:36.132Z,2.33
2023-12-11T22:11:03.902Z,3.35
2023-12-11T22:13:31.633Z,2.35
2023-12-11T22:15:59.321Z,3.10
2023-12-11T22:18:27.664Z,2.95
2023-12-11T22:20:55.506Z,3.15
2023-12-11T22:23:24.542Z,3.70
2023-12-11T22:25:52.160Z,2.97
2023-12-11T22:28:19.922Z,3.30
2023-12-11T22:30:47.829Z,3.53
2023-12-11T22:33:23.177Z,4.47
2023-12-11T22:35:50.918Z,2.90
2023-12-11T22:38:18.500Z,3.88
2023-12-11T22:40:48.068Z,3.55
2023-12-11T22:43:17.079Z,3.47
2023-12-11T22:45:44.728Z,4.00
2023-12-11T22:48:15.080Z,3.80
2023-12-11T22:53:28.292Z,3.45
2023-12-11T22:55:57.664Z,3.45
2023-12-11T22:58:25.298Z,3.83
2023-12-11T23:00:55.647Z,2.85
2023-12-11T23:03:24.134Z,3.90
2023-12-11T23:05:51.826Z,3.75
2023-12-11T23:08:19.718Z,4.63
2023-12-11T23:10:47.378Z,3.87
2023-12-11T23:13:16.562Z,3.65
2023-12-11T23:15:44.665Z,3.83
2023-12-11T23:18:12.387Z,3.85
2023-12-11T23:20:40.091Z,2.88
2023-12-11T23:23:07.933Z,3.73
2023-12-11T23:25:37.226Z,3.60
2023-12-11T23:28:06.980Z,3.15
2023-12-11T23:30:36.166Z,3.15
2023-12-11T23:33:03.852Z,3.38
2023-12-11T23:35:31.645Z,3.50
2023-12-11T23:37:59.526Z,3.30
2023-12-11T23:40:27.208Z,3.50
2023-12-11T23:42:56.177Z,3.45
2023-12-11T23:45:24.547Z,4.15
2023-12-11T23:47:53.912Z,3.40
2023-12-11T23:50:22.178Z,3.20
2023-12-11T23:52:50.045Z,4.22
2023-12-11T23:55:17.752Z,3.65
2023-12-11T23:57:45.600Z,5.00
